Dr. Ulrich Godt
Wetterdaten: aktuell Samstag, 17.08.2019 23:26
Datum Zeit Temp. A. Feuchte A. Luftdruck Regen Wind Richtung Richtung Sonnenschein Windchill
17.08.2019 23:26 19,2 C 78 % 1007,4 hPa 0,0 l/m 7,6 km/h (2 Bft) S-SO 150 0 min 18,7 C
17.08.2019 23:16 19,3 C 79 % 1007,4 hPa 0,0 l/m 8,8 km/h (2 Bft) S 180 0 min 18,3 C
17.08.2019 23:06 19,4 C 78 % 1007,4 hPa 0,0 l/m 8,4 km/h (2 Bft) S-SO 155 0 min 18,6 C
17.08.2019 22:56 19,4 C 78 % 1007,4 hPa 0,0 l/m 8,1 km/h (2 Bft) S-SO 155 0 min 18,7 C
17.08.2019 22:46 19,5 C 78 % 1007,3 hPa 0,0 l/m 9,8 km/h (2 Bft) S-SO 150 0 min 18,2 C
17.08.2019 22:36 19,6 C 77 % 1007,3 hPa 0,0 l/m 6,5 km/h (2 Bft) S-SO22.5 155 0 min 19,6 C
17.08.2019 22:26 19,6 C 77 % 1007,3 hPa 0,0 l/m 11,9 km/h (2 Bft) SO 135 0 min 17,6 C
17.08.2019 22:16 19,7 C 77 % 1008,4 hPa 0,0 l/m 1,6 km/h (1 Bft) W-SW22.5 255 0 min 19,7 C
17.08.2019 22:06 19,8 C 77 % 1008,3 hPa 0,0 l/m 11,5 km/h (2 Bft) S-SW67.5 200 0 min 17,9 C
17.08.2019 21:56 19,8 C 77 % 1008,3 hPa 0,0 l/m 9,4 km/h (2 Bft) SW45 225 0 min 18,6 C
17.08.2019 21:46 20,0 C 77 % 1008,3 hPa 0,0 l/m 4,7 km/h (1 Bft) S-SW 210 0 min 20,0 C
17.08.2019 21:36 20,1 C 77 % 1008,3 hPa 0,0 l/m 1,2 km/h (1 Bft) W 275 0 min 20,1 C
17.08.2019 21:26 20,2 C 75 % 1008,3 hPa 0,0 l/m 0,3 km/h (0 Bft) W22.5 280 0 min 20,2 C
17.08.2019 21:16 20,3 C 75 % 1008,3 hPa 0,0 l/m 0,7 km/h (0 Bft) W 280 0 min 20,3 C
17.08.2019 21:06 20,4 C 74 % 1008,3 hPa 0,0 l/m 11,5 km/h (2 Bft) S-SW45 205 0 min 18,6 C
17.08.2019 20:56 20,5 C 74 % 1008,3 hPa 0,0 l/m 7,4 km/h (2 Bft) W22.5 260 0 min 20,1 C
17.08.2019 20:46 20,6 C 74 % 1007,3 hPa 0,0 l/m 9,2 km/h (2 Bft) SW22.5 225 0 min 19,6 C
17.08.2019 20:36 20,7 C 71 % 1007,3 hPa 0,0 l/m 4,4 km/h (1 Bft) W 270 0 min 20,7 C
17.08.2019 20:26 20,9 C 70 % 1007,3 hPa 0,0 l/m 3,0 km/h (1 Bft) W 270 0 min 20,9 C
17.08.2019 20:16 21,1 C 70 % 1007,3 hPa 0,0 l/m 9,1 km/h (2 Bft) W22.5 260 0 min 20,1 C
17.08.2019 20:06 21,4 C 67 % 1007,3 hPa 0,0 l/m 13,0 km/h (3 Bft) SW45 230 0 min 19,4 C
17.08.2019 19:56 21,4 C 66 % 1007,3 hPa 0,0 l/m 10,6 km/h (2 Bft) W-SW22.5 250 0 min 20,0 C
17.08.2019 19:46 21,5 C 66 % 1007,2 hPa 0,0 l/m 12,8 km/h (3 Bft) SW45 230 0 min 19,6 C
17.08.2019 19:36 21,6 C 65 % 1007,2 hPa 0,0 l/m 0,3 km/h (0 Bft) W 260 0 min 21,6 C
17.08.2019 19:26 21,7 C 66 % 1007,2 hPa 0,0 l/m 6,9 km/h (2 Bft) W 265 0 min 21,5 C
17.08.2019 19:16 22,0 C 65 % 1007,2 hPa 0,0 l/m 1,8 km/h (1 Bft) W-SW22.5 250 0 min 22,0 C
17.08.2019 19:06 22,1 C 63 % 1007,2 hPa 0,0 l/m 9,6 km/h (2 Bft) S-SO45 165 0 min 21,1 C
17.08.2019 18:56 22,1 C 63 % 1007,2 hPa 0,0 l/m 8,2 km/h (2 Bft) S22.5 185 0 min 21,5 C
17.08.2019 18:46 22,2 C 62 % 1007,2 hPa 0,0 l/m 14,0 km/h (3 Bft) S-SO22.5 160 0 min 20,1 C
17.08.2019 18:36 22,2 C 62 % 1007,2 hPa 0,0 l/m 8,3 km/h (2 Bft) S-SW22.5 195 0 min 21,6 C
17.08.2019 18:26 22,3 C 61 % 1007,2 hPa 0,0 l/m 12,6 km/h (3 Bft) W-SW67.5 240 0 min 20,5 C
17.08.2019 18:16 22,4 C 61 % 1007,2 hPa 0,0 l/m 10,1 km/h (2 Bft) S-SO 155 0 min 21,3 C
17.08.2019 18:06 22,5 C 61 % 1007,2 hPa 0,0 l/m 5,2 km/h (1 Bft) S-SO 150 0 min 22,5 C
17.08.2019 17:57 22,6 C 60 % 1007,2 hPa 0,0 l/m 6,3 km/h (2 Bft) S-SO 150 0 min 22,6 C
17.08.2019 17:46 22,7 C 59 % 1008,2 hPa 0,0 l/m 7,6 km/h (2 Bft) S-SO 155 0 min 22,3 C
17.08.2019 17:36 22,9 C 59 % 1007,2 hPa 0,0 l/m 7,6 km/h (2 Bft) SW22.5 225 0 min 22,5 C
17.08.2019 17:26 23,1 C 59 % 1007,2 hPa 0,0 l/m 4,6 km/h (1 Bft) S 170 0 min 23,1 C
17.08.2019 17:16 23,3 C 58 % 1007,2 hPa 0,0 l/m 14,3 km/h (3 Bft) SO22.5 140 0 min 21,4 C
17.08.2019 17:06 23,3 C 58 % 1007,2 hPa 0,0 l/m 14,1 km/h (3 Bft) S45 180 0 min 21,4 C
17.08.2019 16:56 23,2 C 58 % 1007,2 hPa 0,0 l/m 13,3 km/h (3 Bft) S45 190 0 min 21,4 C
17.08.2019 16:46 23,3 C 58 % 1007,2 hPa 0,0 l/m 11,8 km/h (2 Bft) W-SW22.5 250 0 min 21,9 C
17.08.2019 16:36 23,3 C 57 % 1007,2 hPa 0,0 l/m 6,7 km/h (2 Bft) W-SW45 245 0 min 23,2 C
17.08.2019 16:26 23,4 C 57 % 1007,2 hPa 0,0 l/m 8,7 km/h (2 Bft) W-SW45 240 0 min 22,7 C
17.08.2019 16:16 23,4 C 56 % 1007,2 hPa 0,0 l/m 10,8 km/h (2 Bft) W-SW22.5 240 0 min 22,2 C
17.08.2019 16:06 23,4 C 55 % 1007,2 hPa 0,0 l/m 8,7 km/h (2 Bft) S-SW45 210 0 min 22,7 C
17.08.2019 15:56 23,6 C 54 % 1008,2 hPa 0,0 l/m 13,6 km/h (3 Bft) SW67.5 215 0 min 21,9 C
17.08.2019 15:46 23,8 C 56 % 1007,1 hPa 0,0 l/m 12,9 km/h (3 Bft) SW22.5 235 0 min 22,2 C
17.08.2019 15:36 23,8 C 56 % 1007,1 hPa 0,0 l/m 8,6 km/h (2 Bft) W-SW22.5 250 0 min 23,2 C
17.08.2019 15:26 23,4 C 55 % 1007,2 hPa 0,0 l/m 10,0 km/h (2 Bft) W-SW22.5 250 10 min 22,4 C
17.08.2019 15:16 23,2 C 55 % 1008,2 hPa 0,0 l/m 2,5 km/h (1 Bft) W 265 0 min 23,2 C
17.08.2019 15:07 23,2 C 55 % 1008,2 hPa 0,0 l/m 17,1 km/h (3 Bft) W-SW22.5 245 0 min 20,8 C
17.08.2019 14:56 23,4 C 56 % 1008,2 hPa 0,0 l/m 9,3 km/h (2 Bft) W-SW45 250 0 min 22,6 C
17.08.2019 14:46 23,4 C 55 % 1007,2 hPa 0,0 l/m 8,7 km/h (2 Bft) W-SW45 245 0 min 22,7 C
17.08.2019 14:36 23,4 C 55 % 1007,2 hPa 0,0 l/m 12,5 km/h (3 Bft) SW45 215 0 min 21,8 C
17.08.2019 14:26 23,4 C 55 % 1007,2 hPa 0,0 l/m 19,8 km/h (3 Bft) SW45 225 0 min 20,6 C
17.08.2019 14:16 23,3 C 56 % 1007,2 hPa 0,0 l/m 10,4 km/h (2 Bft) S45 190 0 min 22,2 C
17.08.2019 14:07 23,3 C 53 % 1007,2 hPa 0,0 l/m 6,2 km/h (2 Bft) W-SW22.5 255 0 min 23,3 C
17.08.2019 13:56 23,6 C 53 % 1007,1 hPa 0,0 l/m 13,0 km/h (3 Bft) W45 265 0 min 22,0 C
17.08.2019 13:46 23,7 C 54 % 1007,1 hPa 0,0 l/m 14,9 km/h (3 Bft) W-SW22.5 250 0 min 21,7 C
17.08.2019 13:36 23,8 C 53 % 1007,1 hPa 0,0 l/m 7,2 km/h (2 Bft) W-SW67.5 240 0 min 23,6 C
17.08.2019 13:26 23,7 C 53 % 1007,1 hPa 0,0 l/m 18,3 km/h (3 Bft) W-SW45 245 10 min 21,2 C
17.08.2019 13:16 23,5 C 53 % 1007,2 hPa 0,0 l/m 15,7 km/h (3 Bft) S-SO67.5 160 10 min 21,4 C
17.08.2019 13:06 23,4 C 53 % 1007,2 hPa 0,0 l/m 15,2 km/h (3 Bft) SW67.5 230 10 min 21,3 C
17.08.2019 12:56 23,4 C 53 % 1007,2 hPa 0,0 l/m 11,4 km/h (2 Bft) SW67.5 215 0 min 22,1 C
17.08.2019 12:46 23,4 C 54 % 1007,2 hPa 0,0 l/m 13,5 km/h (3 Bft) W-SW45 245 10 min 21,6 C
17.08.2019 12:36 23,2 C 54 % 1007,2 hPa 0,0 l/m 7,9 km/h (2 Bft) SO 140 0 min 22,7 C
17.08.2019 12:26 23,1 C 54 % 1007,2 hPa 0,0 l/m 13,1 km/h (3 Bft) SW22.5 235 0 min 21,4 C
17.08.2019 12:16 22,8 C 55 % 1007,2 hPa 0,0 l/m 15,6 km/h (3 Bft) S67.5 180 10 min 20,5 C
17.08.2019 12:06 22,6 C 56 % 1008,2 hPa 0,0 l/m 12,6 km/h (3 Bft) SW45 225 0 min 20,9 C
17.08.2019 11:56 22,5 C 54 % 1008,2 hPa 0,0 l/m 17,5 km/h (3 Bft) W-SW45 255 0 min 19,8 C
17.08.2019 11:46 22,3 C 55 % 1008,2 hPa 0,0 l/m 18,3 km/h (3 Bft) S-SW45 200 10 min 19,4 C
17.08.2019 11:36 22,1 C 54 % 1008,2 hPa 0,0 l/m 21,3 km/h (4 Bft) SW67.5 220 0 min 18,7 C
17.08.2019 11:26 22,2 C 54 % 1008,2 hPa 0,0 l/m 26,9 km/h (4 Bft) W-SW67.5 245 0 min 18,1 C
17.08.2019 11:16 22,1 C 56 % 1008,2 hPa 0,0 l/m 21,2 km/h (4 Bft) W45 265 0 min 18,7 C
17.08.2019 11:06 22,2 C 54 % 1008,2 hPa 0,0 l/m 21,2 km/h (4 Bft) SW45 215 0 min 18,9 C
17.08.2019 10:56 22,5 C 53 % 1008,2 hPa 0,0 l/m 23,9 km/h (4 Bft) SW45 230 0 min 18,9 C
17.08.2019 10:46 22,6 C 58 % 1008,2 hPa 0,0 l/m 21,8 km/h (4 Bft) SW67.5 215 10 min 19,3 C
17.08.2019 10:36 22,3 C 58 % 1008,2 hPa 0,0 l/m 13,7 km/h (3 Bft) S45 190 10 min 20,3 C
17.08.2019 10:26 22,1 C 57 % 1008,2 hPa 0,0 l/m 20,1 km/h (4 Bft) S-SW67.5 210 9 min 18,9 C
17.08.2019 10:17 21,8 C 60 % 1008,2 hPa 0,0 l/m 26,4 km/h (4 Bft) SW45 225 11 min 17,7 C
17.08.2019 10:06 21,5 C 61 % 1008,3 hPa 0,0 l/m 21,1 km/h (4 Bft) SW45 220 10 min 18,0 C
17.08.2019 09:56 21,1 C 67 % 1008,3 hPa 0,0 l/m 14,3 km/h (3 Bft) SW67.5 220 10 min 18,7 C
17.08.2019 09:46 20,4 C 68 % 1008,3 hPa 0,0 l/m 7,5 km/h (2 Bft) W-SW 245 0 min 20,0 C
17.08.2019 09:36 19,9 C 71 % 1008,3 hPa 0,0 l/m 12,2 km/h (2 Bft) S-SW45 210 0 min 17,9 C
17.08.2019 09:26 19,4 C 74 % 1008,4 hPa 0,0 l/m 5,1 km/h (1 Bft) S 180 0 min 19,4 C
17.08.2019 09:16 19,1 C 75 % 1008,4 hPa 0,0 l/m 8,3 km/h (2 Bft) S-SO 155 0 min 18,3 C
17.08.2019 09:06 18,7 C 76 % 1008,4 hPa 0,0 l/m 0,4 km/h (0 Bft) S-SO 165 0 min 18,7 C
17.08.2019 08:56 18,3 C 76 % 1008,4 hPa 0,0 l/m 1,0 km/h (0 Bft) S-SO 160 0 min 18,3 C
17.08.2019 08:46 18,0 C 76 % 1008,4 hPa 0,0 l/m 0,0 km/h (0 Bft) S-SO 160 0 min 18,0 C
17.08.2019 08:36 17,8 C 76 % 1008,4 hPa 0,0 l/m 0,0 km/h (0 Bft) S-SO 160 0 min 17,8 C
17.08.2019 08:26 17,8 C 76 % 1008,4 hPa 0,0 l/m 0,1 km/h (0 Bft) S-SO 160 0 min 17,8 C
17.08.2019 08:16 17,7 C 77 % 1007,4 hPa 0,0 l/m 9,1 km/h (2 Bft) S-SO 160 0 min 16,5 C
17.08.2019 08:06 17,6 C 76 % 1007,4 hPa 0,0 l/m 4,2 km/h (1 Bft) S 175 0 min 17,6 C
17.08.2019 07:56 17,4 C 77 % 1007,5 hPa 0,0 l/m 9,0 km/h (2 Bft) S 170 0 min 16,2 C
17.08.2019 07:46 17,3 C 77 % 1007,5 hPa 0,0 l/m 13,0 km/h (3 Bft) S22.5 170 0 min 14,6 C
17.08.2019 07:36 17,2 C 77 % 1007,5 hPa 0,0 l/m 9,6 km/h (2 Bft) S 180 0 min 15,7 C
17.08.2019 07:26 17,1 C 77 % 1007,5 hPa 0,0 l/m 11,6 km/h (2 Bft) S-SO22.5 155 0 min 14,8 C
17.08.2019 07:16 17,1 C 77 % 1007,5 hPa 0,0 l/m 11,2 km/h (2 Bft) S22.5 180 0 min 15,0 C
17.08.2019 07:06 17,0 C 78 % 1007,5 hPa 0,0 l/m 13,0 km/h (3 Bft) S-SO22.5 165 0 min 14,2 C
17.08.2019 06:56 16,9 C 78 % 1007,5 hPa 0,0 l/m 14,4 km/h (3 Bft) S22.5 180 0 min 13,7 C
17.08.2019 06:46 16,9 C 78 % 1007,5 hPa 0,0 l/m 9,7 km/h (2 Bft) S 190 0 min 15,3 C
17.08.2019 06:36 16,9 C 78 % 1007,5 hPa 0,0 l/m 15,6 km/h (3 Bft) S22.5 185 0 min 13,3 C
17.08.2019 06:26 16,8 C 79 % 1007,5 hPa 0,0 l/m 15,0 km/h (3 Bft) S22.5 185 0 min 13,4 C
17.08.2019 06:16 16,8 C 79 % 1007,5 hPa 0,0 l/m 9,5 km/h (2 Bft) S 185 0 min 15,3 C
17.08.2019 06:06 16,7 C 80 % 1008,5 hPa 0,0 l/m 9,0 km/h (2 Bft) S-SW22.5 195 0 min 15,4 C
17.08.2019 05:56 16,6 C 80 % 1008,5 hPa 0,0 l/m 10,8 km/h (2 Bft) S-SO45 155 0 min 14,6 C
17.08.2019 05:46 16,6 C 80 % 1008,5 hPa 0,0 l/m 8,7 km/h (2 Bft) S 170 0 min 15,5 C
17.08.2019 05:36 16,5 C 79 % 1008,5 hPa 0,0 l/m 8,7 km/h (2 Bft) S-SO22.5 160 0 min 15,3 C
17.08.2019 05:27 16,5 C 79 % 1008,5 hPa 0,0 l/m 0,4 km/h (0 Bft) S 180 0 min 16,5 C
17.08.2019 05:16 16,4 C 79 % 1008,5 hPa 0,0 l/m 4,2 km/h (1 Bft) S 180 0 min 16,4 C
17.08.2019 05:06 16,4 C 78 % 1008,5 hPa 0,0 l/m 5,3 km/h (1 Bft) S 180 0 min 16,4 C
17.08.2019 04:56 16,5 C 78 % 1008,5 hPa 0,0 l/m 4,8 km/h (1 Bft) S 180 0 min 16,5 C
17.08.2019 04:46 16,5 C 78 % 1009,5 hPa 0,0 l/m 8,9 km/h (2 Bft) S 185 0 min 15,3 C
17.08.2019 04:36 16,6 C 79 % 1009,5 hPa 0,0 l/m 10,1 km/h (2 Bft) S22.5 180 0 min 14,8 C
17.08.2019 04:26 16,7 C 77 % 1009,5 hPa 0,0 l/m 5,7 km/h (1 Bft) S-SO 150 0 min 16,7 C
17.08.2019 04:16 16,8 C 76 % 1009,5 hPa 0,0 l/m 7,2 km/h (2 Bft) S 180 0 min 16,4 C
17.08.2019 04:06 16,9 C 75 % 1009,5 hPa 0,3 l/m 13,0 km/h (3 Bft) S 180 0 min 14,1 C
17.08.2019 03:56 16,9 C 72 % 1009,5 hPa 0,0 l/m 4,5 km/h (1 Bft) SO 130 0 min 16,9 C
17.08.2019 03:46 17,0 C 71 % 1009,5 hPa 0,0 l/m 0,0 km/h (0 Bft) S-SO 155 0 min 17,0 C
17.08.2019 03:36 17,1 C 70 % 1009,5 hPa 0,0 l/m 0,0 km/h (0 Bft) S-SO 155 0 min 17,1 C
17.08.2019 03:26 17,2 C 69 % 1010,5 hPa 0,0 l/m 0,0 km/h (0 Bft) S-SO 155 0 min 17,2 C
17.08.2019 03:16 17,3 C 68 % 1010,5 hPa 0,0 l/m 0,0 km/h (0 Bft) S-SO 155 0 min 17,3 C
17.08.2019 03:06 17,4 C 66 % 1010,5 hPa 0,0 l/m 0,0 km/h (0 Bft) S-SO 155 0 min 17,4 C
17.08.2019 02:55 17,4 C 66 % 1010,5 hPa 0,0 l/m 1,0 km/h (0 Bft) S-SO 155 0 min 17,4 C
17.08.2019 02:45 17,5 C 65 % 1010,5 hPa 0,0 l/m 0,0 km/h (0 Bft) S-SO 155 0 min 17,5 C
17.08.2019 02:36 17,5 C 65 % 1010,5 hPa 0,0 l/m 0,3 km/h (0 Bft) S-SO 155 0 min 17,5 C
17.08.2019 02:25 17,5 C 65 % 1010,5 hPa 0,0 l/m 0,0 km/h (0 Bft) S-SO 155 0 min 17,5 C
17.08.2019 02:15 17,5 C 65 % 1010,5 hPa 0,0 l/m 0,0 km/h (0 Bft) S-SO 155 0 min 17,5 C
17.08.2019 02:05 17,6 C 65 % 1010,5 hPa 0,0 l/m 1,2 km/h (1 Bft) S-SO 155 0 min 17,6 C
17.08.2019 01:55 17,6 C 65 % 1011,5 hPa 0,0 l/m 3,3 km/h (1 Bft) S-SO 155 0 min 17,6 C
17.08.2019 01:45 17,6 C 65 % 1011,5 hPa 0,0 l/m 3,6 km/h (1 Bft) S-SO 155 0 min 17,6 C
17.08.2019 01:35 17,6 C 64 % 1011,5 hPa 0,0 l/m 7,2 km/h (2 Bft) S-SO 155 0 min 17,2 C
17.08.2019 01:25 17,7 C 64 % 1011,5 hPa 0,0 l/m 5,2 km/h (1 Bft) S-SO 155 0 min 17,7 C
17.08.2019 01:15 17,7 C 64 % 1011,5 hPa 0,0 l/m 8,6 km/h (2 Bft) S-SO 165 0 min 16,7 C
17.08.2019 01:05 17,7 C 64 % 1011,5 hPa 0,0 l/m 4,9 km/h (1 Bft) S-SO 150 0 min 17,7 C
17.08.2019 00:55 17,7 C 64 % 1011,5 hPa 0,0 l/m 7,7 km/h (2 Bft) S-SO 150 0 min 17,1 C
17.08.2019 00:45 17,7 C 64 % 1011,5 hPa 0,0 l/m 7,5 km/h (2 Bft) SO 140 0 min 17,2 C
17.08.2019 00:35 17,7 C 63 % 1011,5 hPa 0,0 l/m 6,5 km/h (2 Bft) SO 140 0 min 17,7 C
17.08.2019 00:25 17,7 C 63 % 1011,5 hPa 0,0 l/m 5,7 km/h (1 Bft) SO 145 0 min 17,7 C
17.08.2019 00:15 17,8 C 63 % 1012,5 hPa 0,0 l/m 4,6 km/h (1 Bft) S-SO 155 0 min 17,8 C
17.08.2019 00:05 17,9 C 63 % 1012,5 hPa 0,0 l/m 5,8 km/h (2 Bft) S-SO 155 0 min 17,9 C
_ Min-Zeit 05:06 10:56 13:36 - 02:15 - - - 06:36
Minimum _ 16,4 C 53 % 1007,1 hPa - 0,0 km/h (0 Bft) - - - 13,3 C
_ Max-Zeit 13:36 05:46 00:15 04:06 11:26 - - 10:17 13:36
Maximum _ 23,8 C 80 % 1012,5 hPa 0,3 l/m 26,9 km/h
W-SW (4 Bft)
- - 11 min 23,6 C
Durchschnitt _ 20,1 C 66 % 1008,3 hPa #0,3 l/m 9,1 km/h (2 Bft) S-SO - #2:10 h 19,0 C